createdAt,value
2018-03-29T00:02:01.792Z,19.00
2018-03-29T00:04:29.216Z,23.50
2018-03-29T00:06:56.710Z,18.23
2018-03-29T00:09:24.135Z,16.17
2018-03-29T00:11:51.710Z,16.00
2018-03-29T00:14:19.180Z,13.60
2018-03-29T00:16:46.605Z,15.00
2018-03-29T00:19:14.081Z,19.93
2018-03-29T00:21:41.509Z,11.83
2018-03-29T00:24:09.701Z,14.67
2018-03-29T00:26:37.148Z,14.83
2018-03-29T00:29:04.584Z,17.90
2018-03-29T00:31:32.113Z,13.87
2018-03-29T00:33:59.652Z,14.90
2018-03-29T00:36:27.102Z,11.30
2018-03-29T00:38:54.579Z,11.37
2018-03-29T00:41:22.032Z,13.17
2018-03-29T00:43:49.584Z,16.13
2018-03-29T00:46:17.044Z,10.50
2018-03-29T00:48:44.473Z,14.37
2018-03-29T00:51:11.947Z,14.47
2018-03-29T00:53:45.277Z,20.43
2018-03-29T00:56:12.714Z,13.30
2018-03-29T00:58:40.155Z,12.50
2018-03-29T01:01:07.632Z,11.87
2018-03-29T01:03:35.172Z,18.47
2018-03-29T01:06:02.593Z,15.33
2018-03-29T01:08:33.566Z,17.97
2018-03-29T01:11:01.079Z,19.40
2018-03-29T01:13:28.452Z,16.00
2018-03-29T01:15:56.670Z,16.33
2018-03-29T01:18:24.176Z,17.57
2018-03-29T01:20:51.606Z,16.67
2018-03-29T01:23:19.021Z,20.70
2018-03-29T01:25:46.502Z,24.63
2018-03-29T01:28:13.952Z,19.50
2018-03-29T01:30:41.399Z,21.97
2018-03-29T01:33:08.820Z,28.17
2018-03-29T01:35:37.038Z,27.83
2018-03-29T01:38:04.592Z,25.77
2018-03-29T01:40:32.032Z,22.10
2018-03-29T01:42:59.518Z,27.50
2018-03-29T01:45:26.972Z,24.70
2018-03-29T01:47:54.428Z,21.80
2018-03-29T01:50:21.884Z,25.77
2018-03-29T01:52:49.344Z,26.33
2018-03-29T01:55:16.792Z,25.13
2018-03-29T01:57:44.397Z,23.13
2018-03-29T02:00:11.807Z,25.10
2018-03-29T02:02:39.369Z,29.67
2018-03-29T02:05:06.828Z,26.90
2018-03-29T02:07:34.384Z,20.83
2018-03-29T02:10:01.845Z,24.77
2018-03-29T02:12:29.281Z,22.87
2018-03-29T02:14:56.734Z,28.97
2018-03-29T02:17:24.931Z,32.00
2018-03-29T02:19:52.393Z,28.53
2018-03-29T02:22:19.808Z,34.40
2018-03-29T02:24:48.120Z,32.20
2018-03-29T02:27:15.525Z,31.23
2018-03-29T02:29:43.048Z,31.83
2018-03-29T02:32:10.490Z,35.03
2018-03-29T02:34:37.913Z,36.70
2018-03-29T02:37:06.110Z,36.20
2018-03-29T02:39:33.585Z,41.13
2018-03-29T02:42:01.022Z,38.70
2018-03-29T02:44:28.445Z,38.60
2018-03-29T02:46:56.696Z,43.57
2018-03-29T02:49:24.129Z,43.30
2018-03-29T02:51:51.626Z,42.17
2018-03-29T02:54:19.041Z,45.27
2018-03-29T02:56:46.474Z,47.90
2018-03-29T02:59:13.906Z,44.27
2018-03-29T03:01:42.133Z,45.57
2018-03-29T03:04:09.569Z,42.10
2018-03-29T03:06:37.005Z,45.07
2018-03-29T03:09:05.218Z,46.77
2018-03-29T03:11:32.645Z,51.47
2018-03-29T03:14:00.846Z,52.73
2018-03-29T03:16:28.309Z,49.23
2018-03-29T03:18:55.799Z,50.73
2018-03-29T03:21:23.216Z,49.43
2018-03-29T03:23:50.731Z,52.60
2018-03-29T03:26:18.953Z,48.90
2018-03-29T03:28:46.379Z,54.73
2018-03-29T03:31:14.583Z,61.63
2018-03-29T03:33:42.031Z,63.20
2018-03-29T03:36:09.456Z,54.23
2018-03-29T03:38:37.720Z,60.83
2018-03-29T03:41:05.242Z,63.83
2018-03-29T03:43:32.669Z,57.73
2018-03-29T03:46:00.147Z,65.00
2018-03-29T03:48:27.603Z,71.60
2018-03-29T03:50:55.064Z,67.30
2018-03-29T03:53:22.513Z,68.03
2018-03-29T03:55:49.986Z,73.47
2018-03-29T03:58:17.441Z,77.20
2018-03-29T04:00:44.880Z,77.87
2018-03-29T04:03:12.317Z,84.20
2018-03-29T04:05:39.809Z,87.43
2018-03-29T04:08:07.261Z,85.27
2018-03-29T04:10:34.673Z,91.27
2018-03-29T04:13:02.900Z,90.10
2018-03-29T04:15:30.555Z,87.47
2018-03-29T04:17:58.020Z,92.40
2018-03-29T04:20:25.488Z,93.50
2018-03-29T04:22:53.134Z,102.43
2018-03-29T04:25:20.596Z,101.33
2018-03-29T04:27:48.046Z,98.30
2018-03-29T04:30:15.468Z,97.47
2018-03-29T04:32:43.685Z,92.40
2018-03-29T04:35:11.126Z,104.43
2018-03-29T04:37:38.557Z,92.13
2018-03-29T04:40:06.773Z,96.10
2018-03-29T04:42:34.208Z,97.50
2018-03-29T04:45:01.649Z,91.07
2018-03-29T04:47:29.851Z,91.90
2018-03-29T04:49:57.310Z,98.90
2018-03-29T04:52:24.740Z,108.93
2018-03-29T04:54:52.948Z,107.87
2018-03-29T04:57:20.417Z,104.23
2018-03-29T04:59:47.872Z,122.77
2018-03-29T05:02:15.312Z,93.57
2018-03-29T05:04:42.781Z,112.93
2018-03-29T05:07:10.255Z,118.83
2018-03-29T05:09:37.704Z,115.73
2018-03-29T05:12:05.145Z,120.67
2018-03-29T05:14:32.601Z,121.10
2018-03-29T05:17:00.069Z,114.73
2018-03-29T05:19:27.513Z,117.73
2018-03-29T05:21:54.983Z,128.10
2018-03-29T05:24:22.432Z,120.90
2018-03-29T05:26:49.946Z,131.37
2018-03-29T05:29:17.373Z,125.47
2018-03-29T05:31:44.924Z,125.40
2018-03-29T05:34:12.373Z,122.47
2018-03-29T05:36:39.824Z,117.83
2018-03-29T05:39:07.377Z,126.90
2018-03-29T05:41:34.791Z,114.37
2018-03-29T05:44:03.021Z,129.87
2018-03-29T05:46:30.486Z,122.97
2018-03-29T05:48:58.026Z,123.07
2018-03-29T05:51:25.453Z,124.23
2018-03-29T05:53:53.758Z,127.17
2018-03-29T05:56:21.224Z,125.43
2018-03-29T05:58:48.670Z,106.63
2018-03-29T06:01:16.113Z,124.40
2018-03-29T06:03:43.548Z,126.30
2018-03-29T06:06:11.760Z,124.10
2018-03-29T06:08:39.177Z,109.20
2018-03-29T06:11:07.391Z,111.23
2018-03-29T06:13:34.821Z,108.40
2018-03-29T06:16:03.964Z,125.03
2018-03-29T06:18:32.216Z,108.30
2018-03-29T06:20:59.882Z,100.37
2018-03-29T06:23:27.349Z,103.63
2018-03-29T06:25:54.801Z,94.10
2018-03-29T06:28:22.254Z,105.00
2018-03-29T06:30:49.679Z,99.87
2018-03-29T06:33:17.950Z,106.90
2018-03-29T06:35:46.180Z,104.73
2018-03-29T06:38:13.724Z,101.33
2018-03-29T06:40:41.144Z,107.17
2018-03-29T06:43:09.357Z,111.93
2018-03-29T06:45:36.824Z,96.93
2018-03-29T06:48:04.323Z,106.30
2018-03-29T06:50:31.900Z,104.50
2018-03-29T06:53:00.084Z,93.57
2018-03-29T06:55:27.516Z,95.37
2018-03-29T06:57:55.746Z,91.43
2018-03-29T07:00:23.295Z,89.90
2018-03-29T07:02:50.857Z,94.33
2018-03-29T07:05:18.292Z,91.83
2018-03-29T07:07:45.780Z,76.97
2018-03-29T07:10:13.232Z,89.40
2018-03-29T07:12:40.696Z,81.93
2018-03-29T07:15:08.120Z,87.37
2018-03-29T07:17:35.552Z,85.70
2018-03-29T07:20:03.874Z,87.37
2018-03-29T07:22:31.336Z,82.27
2018-03-29T07:24:58.792Z,81.57
2018-03-29T07:27:26.249Z,91.13
2018-03-29T07:29:53.687Z,90.23
2018-03-29T07:32:21.165Z,96.13
2018-03-29T07:34:48.615Z,95.37
2018-03-29T07:37:16.042Z,93.83
2018-03-29T07:39:44.350Z,98.97
2018-03-29T07:42:11.817Z,96.17
2018-03-29T07:44:39.248Z,97.10
2018-03-29T07:47:06.745Z,91.50
2018-03-29T07:49:34.182Z,90.57
2018-03-29T07:52:01.606Z,89.60
2018-03-29T07:54:29.860Z,95.33
2018-03-29T07:56:58.072Z,90.70
2018-03-29T07:59:25.589Z,91.07
2018-03-29T08:01:52.989Z,105.80
2018-03-29T08:04:20.440Z,93.97
2018-03-29T08:06:47.914Z,89.17
2018-03-29T08:09:15.343Z,99.60
2018-03-29T08:11:43.553Z,96.87
2018-03-29T08:14:11.005Z,94.23
2018-03-29T08:16:38.417Z,93.37
2018-03-29T08:19:06.636Z,92.40
2018-03-29T08:21:34.091Z,90.53
2018-03-29T08:24:01.552Z,105.03
2018-03-29T08:26:29.005Z,95.17
2018-03-29T08:28:56.464Z,88.43
2018-03-29T08:31:23.920Z,82.17
2018-03-29T08:33:51.396Z,86.93
2018-03-29T08:36:18.940Z,86.47
2018-03-29T08:38:46.348Z,73.93
2018-03-29T08:41:14.552Z,80.20
2018-03-29T08:43:42.035Z,81.23
2018-03-29T08:46:09.468Z,76.23
2018-03-29T08:48:36.922Z,69.20
2018-03-29T08:51:04.413Z,72.73
2018-03-29T08:53:31.920Z,77.53
2018-03-29T08:55:59.314Z,77.70
2018-03-29T08:58:26.752Z,72.63
2018-03-29T09:00:54.234Z,70.13
2018-03-29T09:03:21.682Z,77.37
2018-03-29T09:05:49.148Z,72.93
2018-03-29T09:08:16.584Z,73.97
2018-03-29T09:10:44.057Z,69.60
2018-03-29T09:13:11.464Z,67.67
2018-03-29T09:15:39.694Z,65.37
2018-03-29T09:18:07.142Z,76.17
2018-03-29T09:20:34.584Z,72.37
2018-03-29T09:23:02.073Z,73.23
2018-03-29T09:25:29.516Z,76.50
2018-03-29T09:27:56.972Z,72.57
2018-03-29T09:30:24.436Z,70.87
2018-03-29T09:32:51.885Z,72.00
2018-03-29T09:35:19.328Z,79.50
2018-03-29T09:37:46.757Z,77.70
2018-03-29T09:40:14.974Z,71.27
2018-03-29T09:42:42.388Z,79.17
2018-03-29T09:45:10.588Z,72.30
2018-03-29T09:47:38.017Z,69.50
2018-03-29T09:50:06.237Z,62.77
2018-03-29T09:52:33.648Z,61.17
2018-03-29T09:55:01.924Z,55.50
2018-03-29T09:57:29.325Z,52.63
2018-03-29T09:59:56.739Z,55.10
2018-03-29T10:02:25.059Z,50.47
2018-03-29T10:04:58.236Z,53.97
2018-03-29T10:07:41.336Z,49.50
2018-03-29T10:10:09.550Z,50.27
2018-03-29T10:12:36.957Z,47.80
2018-03-29T10:15:04.472Z,49.63
2018-03-29T10:17:32.023Z,45.73
2018-03-29T10:19:59.432Z,46.90
2018-03-29T10:22:27.642Z,43.93
2018-03-29T10:24:55.064Z,41.10
2018-03-29T10:27:22.572Z,40.90
2018-03-29T10:29:50.016Z,38.47
2018-03-29T10:32:19.133Z,40.03
2018-03-29T10:34:46.588Z,39.57
2018-03-29T10:37:14.035Z,36.43
2018-03-29T10:39:41.469Z,32.83
2018-03-29T10:42:09.770Z,35.63
2018-03-29T10:44:37.229Z,38.47
2018-03-29T10:47:04.645Z,30.50
2018-03-29T10:49:32.070Z,27.80
2018-03-29T10:52:00.273Z,33.10
2018-03-29T10:54:27.746Z,27.63
2018-03-29T10:56:55.296Z,29.03
2018-03-29T10:59:22.785Z,28.20
2018-03-29T11:01:50.226Z,23.87
2018-03-29T11:04:17.693Z,25.40
2018-03-29T11:06:45.137Z,25.93
2018-03-29T11:09:12.581Z,24.43
2018-03-29T11:11:40.012Z,24.20
2018-03-29T11:14:08.228Z,24.67
2018-03-29T11:16:35.653Z,23.80
2018-03-29T11:19:03.085Z,22.90
2018-03-29T11:21:31.300Z,22.33
2018-03-29T11:23:58.772Z,21.53
2018-03-29T11:26:26.228Z,22.90
2018-03-29T11:28:53.952Z,19.03
2018-03-29T11:31:22.173Z,18.27
2018-03-29T11:33:49.668Z,20.63
2018-03-29T11:36:17.148Z,18.33
2018-03-29T11:38:44.588Z,19.57
2018-03-29T11:41:12.000Z,19.97
2018-03-29T11:43:40.220Z,17.20
2018-03-29T11:46:07.681Z,20.23
2018-03-29T11:48:35.112Z,16.80
2018-03-29T11:51:02.587Z,19.27
2018-03-29T11:53:30.045Z,13.43
2018-03-29T11:55:57.463Z,14.53
2018-03-29T11:58:25.697Z,14.53
2018-03-29T12:00:53.145Z,17.03
2018-03-29T12:03:20.596Z,15.70
2018-03-29T12:05:48.036Z,10.93
2018-03-29T12:08:15.478Z,13.43
2018-03-29T12:10:43.684Z,8.53
2018-03-29T12:13:11.121Z,8.20
2018-03-29T12:15:38.571Z,7.83
2018-03-29T12:18:06.778Z,9.00
2018-03-29T12:20:34.238Z,8.33
2018-03-29T12:23:01.688Z,7.27
2018-03-29T12:25:29.141Z,5.40
2018-03-29T12:27:56.576Z,5.40
2018-03-29T12:30:24.061Z,4.57
2018-03-29T12:32:51.516Z,6.07
2018-03-29T12:35:18.980Z,5.17
2018-03-29T12:37:46.424Z,6.47
2018-03-29T12:40:13.895Z,6.73
2018-03-29T12:42:41.439Z,7.03
2018-03-29T12:45:08.931Z,12.23
2018-03-29T12:47:36.337Z,8.13
2018-03-29T12:50:03.818Z,7.37
2018-03-29T12:52:31.268Z,6.97
2018-03-29T12:55:10.612Z,6.37
2018-03-29T12:57:49.934Z,6.97
2018-03-29T13:00:17.419Z,7.23
2018-03-29T13:02:44.833Z,9.63
2018-03-29T13:05:12.331Z,7.97
2018-03-29T13:07:39.860Z,9.43
2018-03-29T13:10:07.296Z,9.23
2018-03-29T13:12:35.497Z,9.83
2018-03-29T13:15:02.968Z,8.17
2018-03-29T13:17:30.429Z,8.33
2018-03-29T13:19:57.893Z,7.30
2018-03-29T13:22:25.440Z,15.97
2018-03-29T13:24:52.890Z,10.23
2018-03-29T13:27:20.315Z,10.93
2018-03-29T13:29:47.754Z,9.73
2018-03-29T13:32:15.208Z,9.00
2018-03-29T13:34:42.664Z,7.93
2018-03-29T13:37:10.124Z,9.63
2018-03-29T13:39:37.589Z,8.60
2018-03-29T13:42:05.780Z,8.33
2018-03-29T13:44:33.228Z,9.10
2018-03-29T13:47:01.413Z,8.97
2018-03-29T13:49:28.891Z,8.90
2018-03-29T13:51:56.353Z,8.03
2018-03-29T13:54:23.803Z,10.93
2018-03-29T13:56:51.268Z,8.27
2018-03-29T13:59:18.729Z,8.03
2018-03-29T14:01:46.280Z,8.40
2018-03-29T14:04:13.751Z,7.13
2018-03-29T14:06:41.192Z,5.97
2018-03-29T14:09:08.649Z,6.27
2018-03-29T14:11:36.054Z,8.13
2018-03-29T14:14:03.496Z,5.87
2018-03-29T14:16:30.921Z,6.00
2018-03-29T14:18:58.386Z,4.47
2018-03-29T14:21:25.823Z,6.00
2018-03-29T14:23:53.297Z,9.23
2018-03-29T14:26:20.725Z,3.87
2018-03-29T14:28:48.167Z,6.20
2018-03-29T14:31:16.529Z,4.30
2018-03-29T14:33:44.047Z,4.30
2018-03-29T14:36:11.601Z,4.07
2018-03-29T14:38:39.074Z,4.27
2018-03-29T14:41:06.497Z,3.57
2018-03-29T14:43:33.985Z,4.57
2018-03-29T14:46:01.440Z,5.17
2018-03-29T14:48:28.916Z,4.87
2018-03-29T14:50:56.354Z,4.53
2018-03-29T14:53:23.784Z,6.43
2018-03-29T14:55:51.240Z,7.73
2018-03-29T14:58:18.721Z,5.60
2018-03-29T15:00:46.155Z,5.93
2018-03-29T15:03:13.637Z,5.80
2018-03-29T15:05:41.190Z,5.13
2018-03-29T15:08:08.751Z,8.23
2018-03-29T15:10:36.256Z,8.43
2018-03-29T15:13:03.772Z,5.57
2018-03-29T15:15:31.224Z,6.97
2018-03-29T15:17:58.632Z,5.83
2018-03-29T15:20:26.857Z,5.77
2018-03-29T15:22:54.289Z,5.73
2018-03-29T15:25:21.723Z,6.87
2018-03-29T15:27:49.156Z,5.40
2018-03-29T15:30:16.593Z,8.40
2018-03-29T15:32:44.052Z,6.15
2018-03-29T15:35:11.608Z,6.25
2018-03-29T15:37:39.068Z,5.32
2018-03-29T15:40:06.499Z,6.18
2018-03-29T15:42:33.939Z,7.78
2018-03-29T15:45:02.152Z,5.57
2018-03-29T15:47:29.600Z,5.95
2018-03-29T15:49:57.065Z,6.37
2018-03-29T15:52:24.496Z,7.03
2018-03-29T15:54:51.985Z,6.00
2018-03-29T15:57:19.461Z,5.82
2018-03-29T15:59:46.900Z,5.12
2018-03-29T16:02:14.352Z,5.60
2018-03-29T16:04:41.807Z,4.85
2018-03-29T16:07:09.220Z,4.80
2018-03-29T16:09:37.416Z,6.12
2018-03-29T16:12:04.908Z,4.07
2018-03-29T16:14:32.349Z,4.65
2018-03-29T16:16:59.809Z,4.95
2018-03-29T16:19:27.296Z,3.78
2018-03-29T16:21:54.764Z,4.50
2018-03-29T16:24:22.194Z,4.87
2018-03-29T16:26:49.640Z,4.22
2018-03-29T16:29:17.068Z,6.93
2018-03-29T16:31:44.551Z,6.10
2018-03-29T16:34:11.988Z,4.43
2018-03-29T16:36:39.425Z,4.85
2018-03-29T16:39:07.613Z,5.60
2018-03-29T16:41:35.099Z,4.40
2018-03-29T16:44:02.528Z,2.70
2018-03-29T16:46:29.960Z,3.70
2018-03-29T16:48:58.174Z,4.73
2018-03-29T16:51:25.600Z,5.03
2018-03-29T16:53:53.850Z,5.03
2018-03-29T16:56:21.297Z,4.17
2018-03-29T16:58:48.732Z,3.23
2018-03-29T17:01:16.166Z,5.60
2018-03-29T17:03:43.659Z,5.47
2018-03-29T17:06:11.120Z,2.73
2018-03-29T17:08:38.573Z,3.83
2018-03-29T17:11:06.036Z,5.10
2018-03-29T17:13:33.464Z,5.27
2018-03-29T17:16:00.949Z,4.47
2018-03-29T17:18:28.405Z,7.60
2018-03-29T17:20:55.851Z,3.40
2018-03-29T17:23:23.256Z,4.03
2018-03-29T17:25:50.769Z,4.97
2018-03-29T17:28:18.202Z,5.73
2018-03-29T17:30:45.620Z,2.90
2018-03-29T17:33:13.056Z,4.60
2018-03-29T17:35:40.516Z,4.87
2018-03-29T17:38:07.953Z,3.90
2018-03-29T17:40:35.388Z,4.70
2018-03-29T17:43:02.824Z,4.93
2018-03-29T17:45:31.074Z,5.17
2018-03-29T17:47:58.566Z,4.37
2018-03-29T17:50:26.000Z,4.43
2018-03-29T17:52:53.460Z,7.63
2018-03-29T17:55:20.893Z,9.53
2018-03-29T17:57:48.359Z,11.40
2018-03-29T18:00:15.784Z,13.07
2018-03-29T18:02:43.229Z,9.33
2018-03-29T18:05:11.021Z,9.97
2018-03-29T18:07:38.492Z,7.60
2018-03-29T18:10:05.936Z,4.90
2018-03-29T18:12:33.412Z,7.40
2018-03-29T18:15:00.865Z,12.73
2018-03-29T18:17:28.310Z,10.73
2018-03-29T18:19:55.771Z,13.53
2018-03-29T18:22:23.224Z,10.40
2018-03-29T18:24:50.711Z,9.33
2018-03-29T18:27:18.136Z,12.47
2018-03-29T18:29:45.600Z,10.30
2018-03-29T18:32:13.060Z,9.67
2018-03-29T18:34:40.529Z,9.33
2018-03-29T18:37:07.964Z,12.57
2018-03-29T18:39:35.411Z,12.70
2018-03-29T18:42:02.836Z,12.10
2018-03-29T18:44:31.061Z,14.83
2018-03-29T18:46:58.509Z,14.30
2018-03-29T18:49:25.972Z,13.20
2018-03-29T18:51:53.426Z,12.87
2018-03-29T18:54:20.878Z,12.20
2018-03-29T18:56:48.352Z,14.77
2018-03-29T18:59:15.778Z,14.90
2018-03-29T19:01:43.265Z,20.73
2018-03-29T19:04:10.697Z,16.70
2018-03-29T19:06:38.172Z,18.23
2018-03-29T19:09:06.452Z,17.63
2018-03-29T19:11:33.912Z,14.63
2018-03-29T19:14:01.366Z,13.10
2018-03-29T19:16:28.798Z,15.73
2018-03-29T19:18:56.285Z,14.87
2018-03-29T19:21:23.800Z,14.77
2018-03-29T19:23:51.189Z,19.17
2018-03-29T19:26:18.612Z,17.17
2018-03-29T19:28:46.808Z,16.93
2018-03-29T19:31:14.267Z,15.07
2018-03-29T19:33:41.745Z,20.50
2018-03-29T19:36:09.172Z,15.27
2018-03-29T19:38:36.661Z,14.70
2018-03-29T19:41:04.088Z,15.10
2018-03-29T19:43:31.528Z,17.77
2018-03-29T19:45:59.720Z,15.97
2018-03-29T19:48:27.209Z,18.00
2018-03-29T19:50:54.632Z,13.40
2018-03-29T19:53:22.116Z,14.50
2018-03-29T19:55:49.553Z,14.10
2018-03-29T19:58:16.980Z,13.53
2018-03-29T20:00:45.208Z,14.63
2018-03-29T20:03:12.640Z,17.67
2018-03-29T20:05:40.073Z,17.07
2018-03-29T20:08:08.286Z,17.33
2018-03-29T20:10:35.772Z,17.13
2018-03-29T20:13:03.206Z,17.67
2018-03-29T20:15:30.690Z,15.00
2018-03-29T20:17:58.140Z,16.05
2018-03-29T20:20:25.583Z,13.23
2018-03-29T20:22:53.056Z,15.90
2018-03-29T20:25:21.345Z,14.57
2018-03-29T20:27:48.775Z,15.53
2018-03-29T20:30:16.235Z,14.07
2018-03-29T20:32:43.752Z,21.23
2018-03-29T20:35:11.238Z,18.37
2018-03-29T20:37:38.699Z,16.83
2018-03-29T20:40:06.157Z,16.23
2018-03-29T20:42:33.615Z,20.60
2018-03-29T20:45:01.104Z,22.47
2018-03-29T20:47:28.532Z,19.80
2018-03-29T20:49:55.967Z,20.73
2018-03-29T20:52:23.409Z,22.10
2018-03-29T20:54:50.849Z,18.00
2018-03-29T20:57:18.457Z,18.00
2018-03-29T20:59:45.893Z,20.37
2018-03-29T21:02:13.516Z,21.63
2018-03-29T21:04:41.721Z,22.00
2018-03-29T21:07:10.001Z,22.50
2018-03-29T21:09:38.206Z,21.23
2018-03-29T21:12:05.636Z,19.40
2018-03-29T21:14:33.122Z,22.10
2018-03-29T21:17:00.566Z,20.47
2018-03-29T21:19:28.061Z,19.23
2018-03-29T21:21:55.500Z,17.20
2018-03-29T21:24:22.938Z,21.83
2018-03-29T21:26:50.407Z,20.07
2018-03-29T21:29:17.893Z,20.17
2018-03-29T21:31:45.340Z,21.13
2018-03-29T21:34:12.882Z,23.03
2018-03-29T21:36:40.419Z,19.13
2018-03-29T21:39:07.800Z,20.03
2018-03-29T21:41:35.259Z,22.87
2018-03-29T21:44:02.699Z,22.53
2018-03-29T21:46:30.131Z,23.90
2018-03-29T21:48:58.324Z,25.97
2018-03-29T21:51:25.772Z,23.20
2018-03-29T21:53:53.278Z,21.43
2018-03-29T21:56:20.713Z,21.87
2018-03-29T21:58:48.192Z,26.20
2018-03-29T22:01:15.696Z,25.97
2018-03-29T22:03:43.087Z,24.97
2018-03-29T22:06:10.573Z,22.33
2018-03-29T22:08:38.108Z,23.50
2018-03-29T22:11:05.564Z,22.63
2018-03-29T22:13:33.004Z,23.73
2018-03-29T22:16:00.436Z,26.23
2018-03-29T22:18:28.653Z,25.87
2018-03-29T22:20:56.214Z,26.23
2018-03-29T22:23:23.671Z,27.03
2018-03-29T22:25:51.096Z,23.30
2018-03-29T22:28:18.598Z,24.60
2018-03-29T22:30:46.033Z,26.57
2018-03-29T22:33:13.468Z,24.90
2018-03-29T22:35:40.912Z,25.30
2018-03-29T22:38:08.340Z,22.93
2018-03-29T22:40:36.580Z,25.00
2018-03-29T22:43:04.026Z,26.77
2018-03-29T22:45:31.456Z,23.10
2018-03-29T22:47:59.650Z,27.13
2018-03-29T22:50:27.089Z,24.10
2018-03-29T22:52:54.584Z,25.83
2018-03-29T22:55:22.032Z,27.07
2018-03-29T22:57:49.498Z,30.43
2018-03-29T23:00:26.832Z,27.60
2018-03-29T23:02:54.293Z,25.53
2018-03-29T23:05:22.490Z,32.30
2018-03-29T23:07:49.921Z,27.10
2018-03-29T23:10:18.134Z,27.47
2018-03-29T23:12:45.553Z,29.53
2018-03-29T23:15:13.748Z,29.07
2018-03-29T23:17:41.250Z,34.93
2018-03-29T23:20:08.685Z,33.00
2018-03-29T23:22:36.117Z,30.73
2018-03-29T23:25:04.425Z,32.00
2018-03-29T23:27:31.862Z,30.23
2018-03-29T23:29:59.340Z,33.23
2018-03-29T23:32:26.800Z,29.17
2018-03-29T23:34:54.228Z,29.87
2018-03-29T23:37:21.656Z,35.73
2018-03-29T23:39:49.168Z,31.43
2018-03-29T23:42:16.596Z,32.43
2018-03-29T23:44:44.024Z,32.73
2018-03-29T23:47:12.260Z,36.30
2018-03-29T23:49:39.719Z,33.30
2018-03-29T23:52:07.153Z,33.77
2018-03-29T23:54:34.639Z,33.17
2018-03-29T23:57:06.908Z,33.83
2018-03-29T23:59:34.356Z,35.50
